sensor_id;sensor_type;location;lat;lon;timestamp;P1;durP1;ratioP1;P2;durP2;ratioP2
70588;SDS011;58152;49.202;18.744;2023-04-06T00:01:30;25.17;;;15.23;;
70588;SDS011;58152;49.202;18.744;2023-04-06T00:04:02;43.35;;;26.10;;
70588;SDS011;58152;49.202;18.744;2023-04-06T00:06:28;49.92;;;32.45;;
70588;SDS011;58152;49.202;18.744;2023-04-06T00:08:55;77.13;;;47.95;;
70588;SDS011;58152;49.202;18.744;2023-04-06T00:11:20;69.28;;;41.65;;
70588;SDS011;58152;49.202;18.744;2023-04-06T00:13:46;40.08;;;25.02;;
70588;SDS011;58152;49.202;18.744;2023-04-06T00:16:12;34.35;;;20.33;;
70588;SDS011;58152;49.202;18.744;2023-04-06T00:18:42;30.42;;;16.88;;
70588;SDS011;58152;49.202;18.744;2023-04-06T00:21:10;30.60;;;16.27;;
70588;SDS011;58152;49.202;18.744;2023-04-06T00:23:37;28.90;;;16.55;;
70588;SDS011;58152;49.202;18.744;2023-04-06T00:26:03;31.63;;;16.08;;
70588;SDS011;58152;49.202;18.744;2023-04-06T00:28:28;27.00;;;14.70;;
70588;SDS011;58152;49.202;18.744;2023-04-06T00:30:55;26.45;;;15.25;;
70588;SDS011;58152;49.202;18.744;2023-04-06T00:33:20;26.17;;;15.88;;
70588;SDS011;58152;49.202;18.744;2023-04-06T00:35:47;23.63;;;13.80;;
70588;SDS011;58152;49.202;18.744;2023-04-06T00:38:13;25.13;;;15.05;;
70588;SDS011;58152;49.202;18.744;2023-04-06T00:40:39;24.25;;;14.38;;
70588;SDS011;58152;49.202;18.744;2023-04-06T00:43:07;30.08;;;16.38;;
70588;SDS011;58152;49.202;18.744;2023-04-06T00:45:36;24.75;;;13.98;;
70588;SDS011;58152;49.202;18.744;2023-04-06T00:48:02;26.40;;;15.95;;
70588;SDS011;58152;49.202;18.744;2023-04-06T00:50:28;30.67;;;16.55;;
70588;SDS011;58152;49.202;18.744;2023-04-06T00:52:54;29.10;;;15.55;;
70588;SDS011;58152;49.202;18.744;2023-04-06T00:55:20;28.05;;;14.90;;
70588;SDS011;58152;49.202;18.744;2023-04-06T00:57:45;24.27;;;15.85;;
70588;SDS011;58152;49.202;18.744;2023-04-06T01:00:12;25.15;;;14.65;;
70588;SDS011;58152;49.202;18.744;2023-04-06T01:02:38;25.02;;;14.93;;
70588;SDS011;58152;49.202;18.744;2023-04-06T01:05:04;26.75;;;14.90;;
70588;SDS011;58152;49.202;18.744;2023-04-06T01:07:30;23.90;;;13.77;;
70588;SDS011;58152;49.202;18.744;2023-04-06T01:09:55;26.70;;;14.52;;
70588;SDS011;58152;49.202;18.744;2023-04-06T01:12:21;24.92;;;14.90;;
70588;SDS011;58152;49.202;18.744;2023-04-06T01:14:46;25.38;;;14.38;;
70588;SDS011;58152;49.202;18.744;2023-04-06T01:17:12;27.67;;;15.07;;
70588;SDS011;58152;49.202;18.744;2023-04-06T01:19:37;27.48;;;15.88;;
70588;SDS011;58152;49.202;18.744;2023-04-06T01:22:04;28.27;;;14.90;;
70588;SDS011;58152;49.202;18.744;2023-04-06T01:24:30;25.38;;;15.23;;
70588;SDS011;58152;49.202;18.744;2023-04-06T01:26:55;25.58;;;15.77;;
70588;SDS011;58152;49.202;18.744;2023-04-06T01:29:21;24.42;;;15.23;;
70588;SDS011;58152;49.202;18.744;2023-04-06T01:31:47;26.48;;;16.13;;
70588;SDS011;58152;49.202;18.744;2023-04-06T01:34:12;27.17;;;15.60;;
70588;SDS011;58152;49.202;18.744;2023-04-06T01:36:37;29.45;;;16.60;;
70588;SDS011;58152;49.202;18.744;2023-04-06T01:39:03;28.70;;;15.80;;
70588;SDS011;58152;49.202;18.744;2023-04-06T01:41:28;20.90;;;13.35;;
70588;SDS011;58152;49.202;18.744;2023-04-06T01:43:54;25.55;;;15.15;;
70588;SDS011;58152;49.202;18.744;2023-04-06T01:46:20;25.92;;;16.02;;
70588;SDS011;58152;49.202;18.744;2023-04-06T01:48:45;25.90;;;15.20;;
70588;SDS011;58152;49.202;18.744;2023-04-06T01:51:11;27.98;;;16.15;;
70588;SDS011;58152;49.202;18.744;2023-04-06T01:53:36;25.23;;;14.90;;
70588;SDS011;58152;49.202;18.744;2023-04-06T01:56:02;27.55;;;15.45;;
70588;SDS011;58152;49.202;18.744;2023-04-06T01:58:27;30.30;;;16.33;;
70588;SDS011;58152;49.202;18.744;2023-04-06T02:00:52;27.60;;;16.88;;
70588;SDS011;58152;49.202;18.744;2023-04-06T02:03:19;24.52;;;15.63;;
70588;SDS011;58152;49.202;18.744;2023-04-06T02:05:45;24.33;;;15.05;;
70588;SDS011;58152;49.202;18.744;2023-04-06T02:08:10;30.15;;;17.50;;
70588;SDS011;58152;49.202;18.744;2023-04-06T02:10:35;32.17;;;16.92;;
70588;SDS011;58152;49.202;18.744;2023-04-06T02:13:01;25.80;;;14.77;;
70588;SDS011;58152;49.202;18.744;2023-04-06T02:15:26;29.90;;;15.38;;
70588;SDS011;58152;49.202;18.744;2023-04-06T02:17:52;27.27;;;15.63;;
70588;SDS011;58152;49.202;18.744;2023-04-06T02:20:18;27.70;;;15.65;;
70588;SDS011;58152;49.202;18.744;2023-04-06T02:22:43;25.83;;;14.90;;
70588;SDS011;58152;49.202;18.744;2023-04-06T02:25:09;25.27;;;14.60;;
70588;SDS011;58152;49.202;18.744;2023-04-06T02:27:35;24.20;;;14.48;;
70588;SDS011;58152;49.202;18.744;2023-04-06T02:30:01;25.10;;;15.25;;
70588;SDS011;58152;49.202;18.744;2023-04-06T02:32:30;28.55;;;15.98;;
70588;SDS011;58152;49.202;18.744;2023-04-06T02:34:55;28.90;;;16.17;;
70588;SDS011;58152;49.202;18.744;2023-04-06T02:37:21;24.25;;;14.45;;
70588;SDS011;58152;49.202;18.744;2023-04-06T02:39:48;28.58;;;16.17;;
70588;SDS011;58152;49.202;18.744;2023-04-06T02:42:13;23.33;;;13.88;;
70588;SDS011;58152;49.202;18.744;2023-04-06T02:44:40;26.33;;;15.43;;
70588;SDS011;58152;49.202;18.744;2023-04-06T02:47:06;30.33;;;15.88;;
70588;SDS011;58152;49.202;18.744;2023-04-06T02:49:31;23.25;;;14.52;;
70588;SDS011;58152;49.202;18.744;2023-04-06T02:51:57;23.88;;;13.85;;
70588;SDS011;58152;49.202;18.744;2023-04-06T02:54:22;27.73;;;15.82;;
70588;SDS011;58152;49.202;18.744;2023-04-06T02:56:48;23.20;;;13.50;;
70588;SDS011;58152;49.202;18.744;2023-04-06T02:59:13;24.00;;;14.25;;
70588;SDS011;58152;49.202;18.744;2023-04-06T03:01:39;31.90;;;16.77;;
70588;SDS011;58152;49.202;18.744;2023-04-06T03:04:04;26.83;;;15.35;;
70588;SDS011;58152;49.202;18.744;2023-04-06T03:06:29;27.35;;;15.77;;
70588;SDS011;58152;49.202;18.744;2023-04-06T03:08:55;27.80;;;15.90;;
70588;SDS011;58152;49.202;18.744;2023-04-06T03:11:20;28.42;;;15.35;;
70588;SDS011;58152;49.202;18.744;2023-04-06T03:13:46;24.95;;;14.85;;
70588;SDS011;58152;49.202;18.744;2023-04-06T03:16:11;25.13;;;14.93;;
70588;SDS011;58152;49.202;18.744;2023-04-06T03:18:37;24.90;;;14.70;;
70588;SDS011;58152;49.202;18.744;2023-04-06T03:21:02;25.05;;;13.85;;
70588;SDS011;58152;49.202;18.744;2023-04-06T03:23:28;24.90;;;15.13;;
70588;SDS011;58152;49.202;18.744;2023-04-06T03:25:53;24.42;;;14.20;;
70588;SDS011;58152;49.202;18.744;2023-04-06T03:28:19;23.75;;;13.40;;
70588;SDS011;58152;49.202;18.744;2023-04-06T03:30:45;24.73;;;13.82;;
70588;SDS011;58152;49.202;18.744;2023-04-06T03:33:10;24.25;;;14.48;;
70588;SDS011;58152;49.202;18.744;2023-04-06T03:35:36;25.50;;;14.77;;
70588;SDS011;58152;49.202;18.744;2023-04-06T03:38:02;26.40;;;15.77;;
70588;SDS011;58152;49.202;18.744;2023-04-06T03:40:28;24.27;;;14.60;;
70588;SDS011;58152;49.202;18.744;2023-04-06T03:42:53;26.67;;;14.23;;
70588;SDS011;58152;49.202;18.744;2023-04-06T03:45:18;27.55;;;16.13;;
70588;SDS011;58152;49.202;18.744;2023-04-06T03:47:44;25.25;;;15.07;;
70588;SDS011;58152;49.202;18.744;2023-04-06T03:50:10;26.13;;;15.10;;
70588;SDS011;58152;49.202;18.744;2023-04-06T03:52:35;29.88;;;15.02;;
70588;SDS011;58152;49.202;18.744;2023-04-06T03:55:01;24.30;;;15.43;;
70588;SDS011;58152;49.202;18.744;2023-04-06T03:57:27;24.20;;;13.95;;
70588;SDS011;58152;49.202;18.744;2023-04-06T03:59:52;28.58;;;15.63;;
70588;SDS011;58152;49.202;18.744;2023-04-06T04:02:18;25.63;;;13.50;;
70588;SDS011;58152;49.202;18.744;2023-04-06T04:04:43;29.52;;;15.52;;
70588;SDS011;58152;49.202;18.744;2023-04-06T04:07:08;25.75;;;15.18;;
70588;SDS011;58152;49.202;18.744;2023-04-06T04:09:34;29.65;;;15.55;;
70588;SDS011;58152;49.202;18.744;2023-04-06T04:12:00;27.70;;;14.50;;
70588;SDS011;58152;49.202;18.744;2023-04-06T04:14:25;22.63;;;13.38;;
70588;SDS011;58152;49.202;18.744;2023-04-06T04:16:51;21.83;;;12.55;;
70588;SDS011;58152;49.202;18.744;2023-04-06T04:19:17;28.13;;;15.07;;
70588;SDS011;58152;49.202;18.744;2023-04-06T04:21:43;25.10;;;14.65;;
70588;SDS011;58152;49.202;18.744;2023-04-06T04:24:12;25.83;;;14.60;;
70588;SDS011;58152;49.202;18.744;2023-04-06T04:26:38;28.77;;;14.20;;
70588;SDS011;58152;49.202;18.744;2023-04-06T04:29:04;28.73;;;15.30;;
70588;SDS011;58152;49.202;18.744;2023-04-06T04:31:30;22.42;;;14.57;;
70588;SDS011;58152;49.202;18.744;2023-04-06T04:33:55;28.75;;;15.40;;
70588;SDS011;58152;49.202;18.744;2023-04-06T04:36:21;26.65;;;15.75;;
70588;SDS011;58152;49.202;18.744;2023-04-06T04:38:46;24.20;;;14.15;;
70588;SDS011;58152;49.202;18.744;2023-04-06T04:41:12;22.52;;;14.23;;
70588;SDS011;58152;49.202;18.744;2023-04-06T04:43:37;23.13;;;13.98;;
70588;SDS011;58152;49.202;18.744;2023-04-06T04:46:04;25.77;;;14.75;;
70588;SDS011;58152;49.202;18.744;2023-04-06T04:48:29;23.50;;;13.57;;
70588;SDS011;58152;49.202;18.744;2023-04-06T04:50:55;25.40;;;14.43;;
70588;SDS011;58152;49.202;18.744;2023-04-06T04:53:21;28.02;;;15.15;;
70588;SDS011;58152;49.202;18.744;2023-04-06T04:55:46;25.65;;;13.75;;
70588;SDS011;58152;49.202;18.744;2023-04-06T04:58:11;26.85;;;14.65;;
70588;SDS011;58152;49.202;18.744;2023-04-06T05:00:41;23.92;;;13.50;;
70588;SDS011;58152;49.202;18.744;2023-04-06T05:03:11;27.45;;;16.00;;
70588;SDS011;58152;49.202;18.744;2023-04-06T05:05:43;24.17;;;13.07;;
70588;SDS011;58152;49.202;18.744;2023-04-06T05:08:08;26.17;;;14.35;;
70588;SDS011;58152;49.202;18.744;2023-04-06T05:10:34;27.02;;;14.27;;
70588;SDS011;58152;49.202;18.744;2023-04-06T05:13:00;24.30;;;13.50;;
70588;SDS011;58152;49.202;18.744;2023-04-06T05:15:25;26.23;;;14.38;;
70588;SDS011;58152;49.202;18.744;2023-04-06T05:17:51;26.50;;;15.48;;
70588;SDS011;58152;49.202;18.744;2023-04-06T05:20:16;23.30;;;14.02;;
70588;SDS011;58152;49.202;18.744;2023-04-06T05:22:42;26.00;;;14.82;;
70588;SDS011;58152;49.202;18.744;2023-04-06T05:25:07;25.08;;;13.38;;
70588;SDS011;58152;49.202;18.744;2023-04-06T05:27:33;20.95;;;12.88;;
70588;SDS011;58152;49.202;18.744;2023-04-06T05:29:59;23.30;;;13.73;;
70588;SDS011;58152;49.202;18.744;2023-04-06T05:32:25;27.55;;;16.20;;
70588;SDS011;58152;49.202;18.744;2023-04-06T05:34:51;23.85;;;13.68;;
70588;SDS011;58152;49.202;18.744;2023-04-06T05:37:17;24.27;;;13.90;;
70588;SDS011;58152;49.202;18.744;2023-04-06T05:39:42;25.90;;;14.45;;
70588;SDS011;58152;49.202;18.744;2023-04-06T05:42:08;22.08;;;13.65;;
70588;SDS011;58152;49.202;18.744;2023-04-06T05:44:33;24.95;;;13.55;;
70588;SDS011;58152;49.202;18.744;2023-04-06T05:46:59;23.42;;;13.95;;
70588;SDS011;58152;49.202;18.744;2023-04-06T05:49:24;22.98;;;12.65;;
70588;SDS011;58152;49.202;18.744;2023-04-06T05:51:50;22.08;;;13.55;;
70588;SDS011;58152;49.202;18.744;2023-04-06T05:54:15;21.45;;;12.88;;
70588;SDS011;58152;49.202;18.744;2023-04-06T05:56:41;25.55;;;13.45;;
70588;SDS011;58152;49.202;18.744;2023-04-06T05:59:06;23.98;;;12.93;;
70588;SDS011;58152;49.202;18.744;2023-04-06T06:01:32;20.20;;;13.02;;
70588;SDS011;58152;49.202;18.744;2023-04-06T06:03:59;20.85;;;12.05;;
70588;SDS011;58152;49.202;18.744;2023-04-06T06:06:25;22.95;;;13.77;;
70588;SDS011;58152;49.202;18.744;2023-04-06T06:08:52;17.70;;;11.63;;
70588;SDS011;58152;49.202;18.744;2023-04-06T06:11:18;21.05;;;11.82;;
70588;SDS011;58152;49.202;18.744;2023-04-06T06:13:43;20.67;;;12.35;;
70588;SDS011;58152;49.202;18.744;2023-04-06T06:16:08;20.58;;;10.88;;
70588;SDS011;58152;49.202;18.744;2023-04-06T06:18:34;16.77;;;10.23;;
70588;SDS011;58152;49.202;18.744;2023-04-06T06:21:01;18.33;;;10.25;;
70588;SDS011;58152;49.202;18.744;2023-04-06T06:23:26;20.30;;;11.45;;
70588;SDS011;58152;49.202;18.744;2023-04-06T06:25:52;20.40;;;11.25;;
70588;SDS011;58152;49.202;18.744;2023-04-06T06:28:17;18.50;;;10.63;;
70588;SDS011;58152;49.202;18.744;2023-04-06T06:30:43;16.30;;;9.02;;
70588;SDS011;58152;49.202;18.744;2023-04-06T06:33:08;15.43;;;9.07;;
70588;SDS011;58152;49.202;18.744;2023-04-06T06:35:33;17.98;;;10.18;;
70588;SDS011;58152;49.202;18.744;2023-04-06T06:37:59;12.40;;;9.05;;
70588;SDS011;58152;49.202;18.744;2023-04-06T06:40:24;14.23;;;7.90;;
70588;SDS011;58152;49.202;18.744;2023-04-06T06:42:51;15.20;;;8.02;;
70588;SDS011;58152;49.202;18.744;2023-04-06T06:45:16;14.10;;;8.18;;
70588;SDS011;58152;49.202;18.744;2023-04-06T06:47:42;11.10;;;7.57;;
70588;SDS011;58152;49.202;18.744;2023-04-06T06:50:07;12.73;;;7.10;;
70588;SDS011;58152;49.202;18.744;2023-04-06T06:52:33;10.60;;;6.75;;
70588;SDS011;58152;49.202;18.744;2023-04-06T06:54:58;12.73;;;7.68;;
70588;SDS011;58152;49.202;18.744;2023-04-06T06:57:23;12.30;;;7.25;;
70588;SDS011;58152;49.202;18.744;2023-04-06T06:59:49;9.40;;;7.45;;
70588;SDS011;58152;49.202;18.744;2023-04-06T07:02:14;12.40;;;7.20;;
70588;SDS011;58152;49.202;18.744;2023-04-06T07:04:40;10.63;;;7.47;;
70588;SDS011;58152;49.202;18.744;2023-04-06T07:07:05;9.43;;;7.00;;
70588;SDS011;58152;49.202;18.744;2023-04-06T07:09:31;8.98;;;6.50;;
70588;SDS011;58152;49.202;18.744;2023-04-06T07:11:56;10.25;;;6.63;;
70588;SDS011;58152;49.202;18.744;2023-04-06T07:14:22;13.35;;;8.00;;
70588;SDS011;58152;49.202;18.744;2023-04-06T07:16:47;12.25;;;7.07;;
70588;SDS011;58152;49.202;18.744;2023-04-06T07:19:15;10.90;;;6.90;;
70588;SDS011;58152;49.202;18.744;2023-04-06T07:21:40;9.98;;;6.70;;
70588;SDS011;58152;49.202;18.744;2023-04-06T07:24:06;13.38;;;6.82;;
70588;SDS011;58152;49.202;18.744;2023-04-06T07:26:31;10.45;;;6.85;;
70588;SDS011;58152;49.202;18.744;2023-04-06T07:28:56;12.20;;;7.43;;
70588;SDS011;58152;49.202;18.744;2023-04-06T07:31:22;10.13;;;6.55;;
70588;SDS011;58152;49.202;18.744;2023-04-06T07:33:47;10.65;;;6.68;;
70588;SDS011;58152;49.202;18.744;2023-04-06T07:36:13;9.15;;;6.80;;
70588;SDS011;58152;49.202;18.744;2023-04-06T07:38:38;12.60;;;7.82;;
70588;SDS011;58152;49.202;18.744;2023-04-06T07:41:04;14.00;;;7.55;;
70588;SDS011;58152;49.202;18.744;2023-04-06T07:43:30;12.48;;;7.20;;
70588;SDS011;58152;49.202;18.744;2023-04-06T07:45:55;9.63;;;7.25;;
70588;SDS011;58152;49.202;18.744;2023-04-06T07:48:22;11.23;;;7.10;;
70588;SDS011;58152;49.202;18.744;2023-04-06T07:50:48;9.10;;;6.13;;
70588;SDS011;58152;49.202;18.744;2023-04-06T07:53:13;10.98;;;6.75;;
70588;SDS011;58152;49.202;18.744;2023-04-06T07:55:38;11.95;;;6.97;;
70588;SDS011;58152;49.202;18.744;2023-04-06T07:58:04;9.05;;;6.18;;
70588;SDS011;58152;49.202;18.744;2023-04-06T08:00:30;12.88;;;7.88;;
70588;SDS011;58152;49.202;18.744;2023-04-06T08:02:55;11.10;;;7.93;;
70588;SDS011;58152;49.202;18.744;2023-04-06T08:05:21;9.65;;;7.18;;
70588;SDS011;58152;49.202;18.744;2023-04-06T08:07:46;11.35;;;7.10;;
70588;SDS011;58152;49.202;18.744;2023-04-06T08:10:12;8.95;;;5.95;;
70588;SDS011;58152;49.202;18.744;2023-04-06T08:12:37;9.88;;;6.85;;
70588;SDS011;58152;49.202;18.744;2023-04-06T08:15:02;10.18;;;7.30;;
70588;SDS011;58152;49.202;18.744;2023-04-06T08:17:28;9.65;;;7.35;;
70588;SDS011;58152;49.202;18.744;2023-04-06T08:19:55;9.00;;;6.40;;
70588;SDS011;58152;49.202;18.744;2023-04-06T08:22:21;9.55;;;6.68;;
70588;SDS011;58152;49.202;18.744;2023-04-06T08:24:46;10.40;;;6.60;;
70588;SDS011;58152;49.202;18.744;2023-04-06T08:27:11;9.90;;;6.18;;
70588;SDS011;58152;49.202;18.744;2023-04-06T08:29:39;12.13;;;6.05;;
70588;SDS011;58152;49.202;18.744;2023-04-06T08:32:04;10.20;;;6.70;;
70588;SDS011;58152;49.202;18.744;2023-04-06T08:34:31;8.77;;;6.03;;
70588;SDS011;58152;49.202;18.744;2023-04-06T08:36:57;9.73;;;6.93;;
70588;SDS011;58152;49.202;18.744;2023-04-06T08:39:23;7.82;;;5.93;;
70588;SDS011;58152;49.202;18.744;2023-04-06T08:41:51;11.98;;;6.75;;
70588;SDS011;58152;49.202;18.744;2023-04-06T08:44:17;10.73;;;6.82;;
70588;SDS011;58152;49.202;18.744;2023-04-06T08:46:43;9.60;;;6.55;;
70588;SDS011;58152;49.202;18.744;2023-04-06T08:49:08;8.85;;;6.57;;
70588;SDS011;58152;49.202;18.744;2023-04-06T08:51:34;9.35;;;6.13;;
70588;SDS011;58152;49.202;18.744;2023-04-06T08:54:03;8.77;;;6.32;;
70588;SDS011;58152;49.202;18.744;2023-04-06T08:56:29;7.05;;;6.10;;
70588;SDS011;58152;49.202;18.744;2023-04-06T08:58:55;8.20;;;6.40;;
70588;SDS011;58152;49.202;18.744;2023-04-06T09:01:28;8.65;;;6.47;;
70588;SDS011;58152;49.202;18.744;2023-04-06T09:03:56;7.85;;;5.97;;
70588;SDS011;58152;49.202;18.744;2023-04-06T09:06:25;8.07;;;5.85;;
70588;SDS011;58152;49.202;18.744;2023-04-06T09:08:55;9.13;;;6.25;;
70588;SDS011;58152;49.202;18.744;2023-04-06T09:11:21;10.65;;;7.32;;
70588;SDS011;58152;49.202;18.744;2023-04-06T09:13:48;7.35;;;5.68;;
70588;SDS011;58152;49.202;18.744;2023-04-06T09:16:15;10.40;;;6.20;;
70588;SDS011;58152;49.202;18.744;2023-04-06T09:18:41;9.88;;;6.28;;
70588;SDS011;58152;49.202;18.744;2023-04-06T09:21:07;9.93;;;6.57;;
70588;SDS011;58152;49.202;18.744;2023-04-06T09:23:33;6.78;;;5.97;;
70588;SDS011;58152;49.202;18.744;2023-04-06T09:26:12;7.90;;;6.50;;
70588;SDS011;58152;49.202;18.744;2023-04-06T09:28:47;9.55;;;6.57;;
70588;SDS011;58152;49.202;18.744;2023-04-06T09:31:15;8.73;;;6.18;;
70588;SDS011;58152;49.202;18.744;2023-04-06T09:33:46;8.20;;;6.35;;
70588;SDS011;58152;49.202;18.744;2023-04-06T09:36:11;8.07;;;6.10;;
70588;SDS011;58152;49.202;18.744;2023-04-06T09:38:50;8.95;;;5.38;;
70588;SDS011;58152;49.202;18.744;2023-04-06T09:41:33;8.35;;;5.82;;
70588;SDS011;58152;49.202;18.744;2023-04-06T09:46:33;9.43;;;6.10;;
70588;SDS011;58152;49.202;18.744;2023-04-06T09:49:00;11.45;;;6.43;;
70588;SDS011;58152;49.202;18.744;2023-04-06T09:51:28;8.82;;;6.35;;
70588;SDS011;58152;49.202;18.744;2023-04-06T09:53:56;8.07;;;6.15;;
70588;SDS011;58152;49.202;18.744;2023-04-06T09:56:27;9.18;;;6.30;;
70588;SDS011;58152;49.202;18.744;2023-04-06T09:58:55;8.63;;;6.78;;
70588;SDS011;58152;49.202;18.744;2023-04-06T10:01:27;8.85;;;6.28;;
70588;SDS011;58152;49.202;18.744;2023-04-06T10:03:56;10.20;;;7.22;;
70588;SDS011;58152;49.202;18.744;2023-04-06T10:06:37;9.30;;;7.15;;
70588;SDS011;58152;49.202;18.744;2023-04-06T10:09:04;8.57;;;6.60;;
70588;SDS011;58152;49.202;18.744;2023-04-06T10:11:33;8.93;;;6.70;;
70588;SDS011;58152;49.202;18.744;2023-04-06T10:13:58;10.90;;;6.75;;
70588;SDS011;58152;49.202;18.744;2023-04-06T10:18:52;7.93;;;5.90;;
70588;SDS011;58152;49.202;18.744;2023-04-06T10:21:23;9.13;;;6.30;;
70588;SDS011;58152;49.202;18.744;2023-04-06T10:23:53;11.63;;;7.60;;
70588;SDS011;58152;49.202;18.744;2023-04-06T10:26:22;10.85;;;7.75;;
70588;SDS011;58152;49.202;18.744;2023-04-06T10:28:48;11.27;;;8.00;;
70588;SDS011;58152;49.202;18.744;2023-04-06T10:31:15;11.57;;;7.93;;
70588;SDS011;58152;49.202;18.744;2023-04-06T10:33:58;54.58;;;35.45;;
70588;SDS011;58152;49.202;18.744;2023-04-06T10:36:28;89.70;;;57.40;;
70588;SDS011;58152;49.202;18.744;2023-04-06T10:38:58;50.97;;;30.95;;
70588;SDS011;58152;49.202;18.744;2023-04-06T10:41:34;25.27;;;17.08;;
70588;SDS011;58152;49.202;18.744;2023-04-06T10:44:17;16.38;;;10.55;;
70588;SDS011;58152;49.202;18.744;2023-04-06T10:46:53;12.70;;;8.68;;
70588;SDS011;58152;49.202;18.744;2023-04-06T10:49:20;11.05;;;8.23;;
70588;SDS011;58152;49.202;18.744;2023-04-06T10:51:50;12.88;;;8.98;;
70588;SDS011;58152;49.202;18.744;2023-04-06T10:54:17;13.07;;;8.32;;
70588;SDS011;58152;49.202;18.744;2023-04-06T10:56:43;10.38;;;7.55;;
70588;SDS011;58152;49.202;18.744;2023-04-06T10:59:09;10.60;;;7.80;;
70588;SDS011;58152;49.202;18.744;2023-04-06T11:01:34;10.95;;;8.13;;
70588;SDS011;58152;49.202;18.744;2023-04-06T11:04:00;11.02;;;8.00;;
70588;SDS011;58152;49.202;18.744;2023-04-06T11:06:28;12.13;;;8.35;;
70588;SDS011;58152;49.202;18.744;2023-04-06T11:08:58;12.35;;;8.07;;
70588;SDS011;58152;49.202;18.744;2023-04-06T11:11:25;11.30;;;8.48;;
70588;SDS011;58152;49.202;18.744;2023-04-06T11:13:57;13.13;;;8.82;;
70588;SDS011;58152;49.202;18.744;2023-04-06T11:16:29;13.40;;;8.82;;
70588;SDS011;58152;49.202;18.744;2023-04-06T11:18:57;14.07;;;9.27;;
70588;SDS011;58152;49.202;18.744;2023-04-06T11:21:39;11.73;;;7.85;;
70588;SDS011;58152;49.202;18.744;2023-04-06T11:24:09;56.90;;;36.95;;
70588;SDS011;58152;49.202;18.744;2023-04-06T11:27:00;66.65;;;43.67;;
70588;SDS011;58152;49.202;18.744;2023-04-06T11:29:27;26.55;;;16.05;;
70588;SDS011;58152;49.202;18.744;2023-04-06T11:31:54;15.45;;;10.70;;
70588;SDS011;58152;49.202;18.744;2023-04-06T11:34:24;11.40;;;8.68;;
70588;SDS011;58152;49.202;18.744;2023-04-06T11:37:03;13.32;;;8.60;;
70588;SDS011;58152;49.202;18.744;2023-04-06T11:39:37;12.13;;;8.60;;
70588;SDS011;58152;49.202;18.744;2023-04-06T11:42:05;11.00;;;7.80;;
70588;SDS011;58152;49.202;18.744;2023-04-06T11:44:34;10.25;;;7.32;;
70588;SDS011;58152;49.202;18.744;2023-04-06T11:47:00;13.05;;;8.48;;
70588;SDS011;58152;49.202;18.744;2023-04-06T11:49:30;10.00;;;7.60;;
70588;SDS011;58152;49.202;18.744;2023-04-06T11:51:58;10.52;;;7.60;;
70588;SDS011;58152;49.202;18.744;2023-04-06T11:54:34;12.13;;;8.45;;
70588;SDS011;58152;49.202;18.744;2023-04-06T11:57:02;12.10;;;8.68;;
70588;SDS011;58152;49.202;18.744;2023-04-06T11:59:29;11.55;;;8.32;;
70588;SDS011;58152;49.202;18.744;2023-04-06T12:01:56;9.88;;;7.13;;
70588;SDS011;58152;49.202;18.744;2023-04-06T12:04:22;12.27;;;8.95;;
70588;SDS011;58152;49.202;18.744;2023-04-06T12:06:48;10.18;;;7.55;;
70588;SDS011;58152;49.202;18.744;2023-04-06T12:09:13;11.55;;;8.18;;
70588;SDS011;58152;49.202;18.744;2023-04-06T12:11:39;12.45;;;8.52;;
70588;SDS011;58152;49.202;18.744;2023-04-06T12:14:06;11.25;;;8.35;;
70588;SDS011;58152;49.202;18.744;2023-04-06T12:16:32;11.35;;;8.95;;
70588;SDS011;58152;49.202;18.744;2023-04-06T12:18:59;14.10;;;8.48;;
70588;SDS011;58152;49.202;18.744;2023-04-06T12:21:26;11.02;;;7.80;;
70588;SDS011;58152;49.202;18.744;2023-04-06T12:23:53;12.75;;;9.32;;
70588;SDS011;58152;49.202;18.744;2023-04-06T12:26:18;12.70;;;8.63;;
70588;SDS011;58152;49.202;18.744;2023-04-06T12:28:43;11.60;;;8.25;;
70588;SDS011;58152;49.202;18.744;2023-04-06T12:31:15;11.25;;;8.38;;
70588;SDS011;58152;49.202;18.744;2023-04-06T12:33:50;12.13;;;8.25;;
70588;SDS011;58152;49.202;18.744;2023-04-06T12:36:17;13.27;;;9.35;;
70588;SDS011;58152;49.202;18.744;2023-04-06T12:38:44;14.02;;;9.23;;
70588;SDS011;58152;49.202;18.744;2023-04-06T12:41:11;13.77;;;9.70;;
70588;SDS011;58152;49.202;18.744;2023-04-06T12:43:36;13.63;;;8.80;;
70588;SDS011;58152;49.202;18.744;2023-04-06T12:46:02;14.05;;;8.52;;
70588;SDS011;58152;49.202;18.744;2023-04-06T12:48:28;12.93;;;8.63;;
70588;SDS011;58152;49.202;18.744;2023-04-06T12:50:54;11.13;;;8.52;;
70588;SDS011;58152;49.202;18.744;2023-04-06T12:53:28;13.05;;;9.15;;
70588;SDS011;58152;49.202;18.744;2023-04-06T12:55:54;12.95;;;8.75;;
70588;SDS011;58152;49.202;18.744;2023-04-06T12:58:20;11.48;;;8.73;;
70588;SDS011;58152;49.202;18.744;2023-04-06T13:00:49;12.27;;;9.55;;
70588;SDS011;58152;49.202;18.744;2023-04-06T13:03:16;13.48;;;10.02;;
70588;SDS011;58152;49.202;18.744;2023-04-06T13:05:47;13.75;;;10.20;;
70588;SDS011;58152;49.202;18.744;2023-04-06T13:08:13;11.82;;;9.13;;
70588;SDS011;58152;49.202;18.744;2023-04-06T13:10:43;11.85;;;8.77;;
70588;SDS011;58152;49.202;18.744;2023-04-06T13:13:09;10.50;;;9.27;;
70588;SDS011;58152;49.202;18.744;2023-04-06T13:15:35;13.38;;;9.02;;
70588;SDS011;58152;49.202;18.744;2023-04-06T13:18:01;11.70;;;9.68;;
70588;SDS011;58152;49.202;18.744;2023-04-06T13:20:27;15.48;;;9.63;;
70588;SDS011;58152;49.202;18.744;2023-04-06T13:22:55;12.75;;;9.23;;
70588;SDS011;58152;49.202;18.744;2023-04-06T13:25:20;113.28;;;83.72;;
70588;SDS011;58152;49.202;18.744;2023-04-06T13:27:46;156.63;;;111.93;;
70588;SDS011;58152;49.202;18.744;2023-04-06T13:30:13;65.22;;;47.58;;
70588;SDS011;58152;49.202;18.744;2023-04-06T13:32:42;32.08;;;23.95;;
70588;SDS011;58152;49.202;18.744;2023-04-06T13:35:08;20.13;;;14.88;;
70588;SDS011;58152;49.202;18.744;2023-04-06T13:37:34;16.15;;;11.80;;
70588;SDS011;58152;49.202;18.744;2023-04-06T13:40:01;15.75;;;11.75;;
70588;SDS011;58152;49.202;18.744;2023-04-06T13:42:32;14.15;;;10.57;;
70588;SDS011;58152;49.202;18.744;2023-04-06T13:45:00;12.60;;;9.90;;
70588;SDS011;58152;49.202;18.744;2023-04-06T13:47:25;15.05;;;10.85;;
70588;SDS011;58152;49.202;18.744;2023-04-06T13:49:51;13.70;;;10.35;;
70588;SDS011;58152;49.202;18.744;2023-04-06T13:52:17;13.48;;;9.85;;
70588;SDS011;58152;49.202;18.744;2023-04-06T13:54:44;13.80;;;10.32;;
70588;SDS011;58152;49.202;18.744;2023-04-06T13:57:09;12.88;;;9.88;;
70588;SDS011;58152;49.202;18.744;2023-04-06T13:59:35;11.27;;;9.07;;
70588;SDS011;58152;49.202;18.744;2023-04-06T14:02:04;15.45;;;10.65;;
70588;SDS011;58152;49.202;18.744;2023-04-06T14:04:32;15.50;;;10.63;;
70588;SDS011;58152;49.202;18.744;2023-04-06T14:06:58;13.23;;;10.30;;
70588;SDS011;58152;49.202;18.744;2023-04-06T14:09:25;14.48;;;11.07;;
70588;SDS011;58152;49.202;18.744;2023-04-06T14:11:51;16.33;;;12.38;;
70588;SDS011;58152;49.202;18.744;2023-04-06T14:14:16;15.43;;;12.07;;
70588;SDS011;58152;49.202;18.744;2023-04-06T14:16:42;16.80;;;11.77;;
70588;SDS011;58152;49.202;18.744;2023-04-06T14:19:11;15.00;;;11.27;;